sensor_id;sensor_type;location;lat;lon;timestamp;pressure;altitude;pressure_sealevel;temperature;humidity
22031;BME280;11179;52.106;21.024;2023-04-20T00:00:28;100754.09;;;9.32;60.99
22031;BME280;11179;52.106;21.024;2023-04-20T00:02:53;100758.78;;;9.31;60.89
22031;BME280;11179;52.106;21.024;2023-04-20T00:05:19;100758.88;;;9.25;61.36
22031;BME280;11179;52.106;21.024;2023-04-20T00:07:44;100757.44;;;9.22;61.10
22031;BME280;11179;52.106;21.024;2023-04-20T00:10:10;100753.03;;;9.21;61.25
22031;BME280;11179;52.106;21.024;2023-04-20T00:12:35;100735.19;;;9.07;61.29
22031;BME280;11179;52.106;21.024;2023-04-20T00:15:01;100749.25;;;9.11;61.10
22031;BME280;11179;52.106;21.024;2023-04-20T00:17:26;100749.84;;;9.13;61.08
22031;BME280;11179;52.106;21.024;2023-04-20T00:19:51;100743.16;;;9.08;61.03
22031;BME280;11179;52.106;21.024;2023-04-20T00:22:17;100749.47;;;9.09;61.55
22031;BME280;11179;52.106;21.024;2023-04-20T00:24:42;100734.03;;;9.03;61.37
22031;BME280;11179;52.106;21.024;2023-04-20T00:27:07;100742.56;;;9.06;61.47
22031;BME280;11179;52.106;21.024;2023-04-20T00:29:33;100749.13;;;9.05;61.38
22031;BME280;11179;52.106;21.024;2023-04-20T00:31:58;100752.69;;;9.06;61.65
22031;BME280;11179;52.106;21.024;2023-04-20T00:34:23;100735.09;;;9.02;61.63
22031;BME280;11179;52.106;21.024;2023-04-20T00:36:48;100744.97;;;9.03;61.52
22031;BME280;11179;52.106;21.024;2023-04-20T00:39:14;100741.63;;;9.01;61.57
22031;BME280;11179;52.106;21.024;2023-04-20T00:41:40;100749.63;;;9.02;61.81
22031;BME280;11179;52.106;21.024;2023-04-20T00:44:06;100750.69;;;9.01;61.46
22031;BME280;11179;52.106;21.024;2023-04-20T00:46:38;100736.03;;;8.96;61.47
22031;BME280;11179;52.106;21.024;2023-04-20T00:49:03;100739.72;;;9.01;61.51
22031;BME280;11179;52.106;21.024;2023-04-20T00:51:29;100738.06;;;9.00;61.40
22031;BME280;11179;52.106;21.024;2023-04-20T00:53:56;100747.94;;;9.01;61.50
22031;BME280;11179;52.106;21.024;2023-04-20T00:56:22;100742.72;;;9.00;61.81
22031;BME280;11179;52.106;21.024;2023-04-20T00:58:47;100745.69;;;8.98;61.53
22031;BME280;11179;52.106;21.024;2023-04-20T01:01:12;100733.88;;;8.98;61.50
22031;BME280;11179;52.106;21.024;2023-04-20T01:03:42;100742.72;;;9.00;61.49
22031;BME280;11179;52.106;21.024;2023-04-20T01:06:08;100752.97;;;9.04;61.74
22031;BME280;11179;52.106;21.024;2023-04-20T01:08:33;100757.22;;;9.12;61.83
22031;BME280;11179;52.106;21.024;2023-04-20T01:10:58;100759.13;;;9.12;61.78
22031;BME280;11179;52.106;21.024;2023-04-20T01:13:24;100755.69;;;9.04;62.10
22031;BME280;11179;52.106;21.024;2023-04-20T01:15:49;100752.59;;;9.01;61.87
22031;BME280;11179;52.106;21.024;2023-04-20T01:18:15;100744.59;;;8.99;62.00
22031;BME280;11179;52.106;21.024;2023-04-20T01:20:43;100752.44;;;9.07;62.13
22031;BME280;11179;52.106;21.024;2023-04-20T01:23:08;100743.63;;;9.05;62.14
22031;BME280;11179;52.106;21.024;2023-04-20T01:25:34;100739.50;;;9.03;62.08
22031;BME280;11179;52.106;21.024;2023-04-20T01:28:00;100753.19;;;9.15;62.29
22031;BME280;11179;52.106;21.024;2023-04-20T01:30:26;100733.41;;;9.13;62.16
22031;BME280;11179;52.106;21.024;2023-04-20T01:32:51;100744.22;;;9.19;62.17
22031;BME280;11179;52.106;21.024;2023-04-20T01:35:17;100750.19;;;9.16;62.25
22031;BME280;11179;52.106;21.024;2023-04-20T01:37:42;100728.53;;;9.03;62.33
22031;BME280;11179;52.106;21.024;2023-04-20T01:40:09;100732.94;;;9.04;62.15
22031;BME280;11179;52.106;21.024;2023-04-20T01:42:34;100735.78;;;9.09;62.44
22031;BME280;11179;52.106;21.024;2023-04-20T01:44:59;100739.97;;;9.12;62.47
22031;BME280;11179;52.106;21.024;2023-04-20T01:47:25;100747.94;;;9.13;62.69
22031;BME280;11179;52.106;21.024;2023-04-20T01:49:50;100744.50;;;9.18;62.65
22031;BME280;11179;52.106;21.024;2023-04-20T01:52:16;100738.19;;;9.17;62.44
22031;BME280;11179;52.106;21.024;2023-04-20T01:54:41;100739.00;;;9.18;62.38
22031;BME280;11179;52.106;21.024;2023-04-20T01:57:06;100747.31;;;9.23;62.50
22031;BME280;11179;52.106;21.024;2023-04-20T01:59:31;100733.84;;;9.21;62.62
22031;BME280;11179;52.106;21.024;2023-04-20T02:01:57;100736.72;;;9.26;62.43
22031;BME280;11179;52.106;21.024;2023-04-20T02:04:23;100728.75;;;9.25;62.26
22031;BME280;11179;52.106;21.024;2023-04-20T02:06:48;100742.56;;;9.30;62.41
22031;BME280;11179;52.106;21.024;2023-04-20T02:09:14;100745.53;;;9.28;62.51
22031;BME280;11179;52.106;21.024;2023-04-20T02:11:39;100740.41;;;9.20;62.34
22031;BME280;11179;52.106;21.024;2023-04-20T02:14:05;100750.44;;;9.26;62.34
22031;BME280;11179;52.106;21.024;2023-04-20T02:16:30;100741.84;;;9.23;62.66
22031;BME280;11179;52.106;21.024;2023-04-20T02:18:56;100752.56;;;9.24;62.42
22031;BME280;11179;52.106;21.024;2023-04-20T02:21:21;100740.56;;;9.14;62.54
22031;BME280;11179;52.106;21.024;2023-04-20T02:23:47;100741.16;;;9.16;62.51
22031;BME280;11179;52.106;21.024;2023-04-20T02:26:12;100748.06;;;9.18;62.79
22031;BME280;11179;52.106;21.024;2023-04-20T02:28:37;100740.09;;;9.17;62.82
22031;BME280;11179;52.106;21.024;2023-04-20T02:31:03;100742.91;;;9.22;62.38
22031;BME280;11179;52.106;21.024;2023-04-20T02:33:28;100752.69;;;9.29;62.66
22031;BME280;11179;52.106;21.024;2023-04-20T02:35:53;100749.13;;;9.29;62.35
22031;BME280;11179;52.106;21.024;2023-04-20T02:38:19;100743.13;;;9.32;62.61
22031;BME280;11179;52.106;21.024;2023-04-20T02:40:44;100744.09;;;9.26;62.60
22031;BME280;11179;52.106;21.024;2023-04-20T02:43:10;100738.63;;;9.26;62.59
22031;BME280;11179;52.106;21.024;2023-04-20T02:45:35;100747.53;;;9.33;62.46
22031;BME280;11179;52.106;21.024;2023-04-20T02:48:01;100735.19;;;9.30;62.45
22031;BME280;11179;52.106;21.024;2023-04-20T02:50:26;100740.16;;;9.33;62.43
22031;BME280;11179;52.106;21.024;2023-04-20T02:52:51;100751.47;;;9.37;62.41
22031;BME280;11179;52.106;21.024;2023-04-20T02:55:17;100756.94;;;9.37;62.42
22031;BME280;11179;52.106;21.024;2023-04-20T02:57:42;100746.69;;;9.32;62.43
22031;BME280;11179;52.106;21.024;2023-04-20T03:00:08;100750.28;;;9.33;62.42
22031;BME280;11179;52.106;21.024;2023-04-20T03:02:33;100745.31;;;9.30;62.49
22031;BME280;11179;52.106;21.024;2023-04-20T03:04:59;100746.97;;;9.31;62.60
22031;BME280;11179;52.106;21.024;2023-04-20T03:07:24;100760.75;;;9.36;62.42
22031;BME280;11179;52.106;21.024;2023-04-20T03:09:50;100758.63;;;9.38;62.61
22031;BME280;11179;52.106;21.024;2023-04-20T03:12:15;100750.28;;;9.33;62.56
22031;BME280;11179;52.106;21.024;2023-04-20T03:14:42;100746.59;;;9.39;62.65
22031;BME280;11179;52.106;21.024;2023-04-20T03:17:07;100760.28;;;9.39;62.61
22031;BME280;11179;52.106;21.024;2023-04-20T03:19:32;100751.94;;;9.34;62.71
22031;BME280;11179;52.106;21.024;2023-04-20T03:21:58;100757.44;;;9.34;62.42
22031;BME280;11179;52.106;21.024;2023-04-20T03:24:23;100750.63;;;9.36;62.45
22031;BME280;11179;52.106;21.024;2023-04-20T03:26:48;100755.66;;;9.39;62.59
22031;BME280;11179;52.106;21.024;2023-04-20T03:29:14;100758.38;;;9.39;62.42
22031;BME280;11179;52.106;21.024;2023-04-20T03:31:39;100754.81;;;9.39;62.64
22031;BME280;11179;52.106;21.024;2023-04-20T03:34:05;100755.28;;;9.36;62.32
22031;BME280;11179;52.106;21.024;2023-04-20T03:36:30;100751.47;;;9.37;62.35
22031;BME280;11179;52.106;21.024;2023-04-20T03:38:56;100757.56;;;9.39;62.71
22031;BME280;11179;52.106;21.024;2023-04-20T03:41:22;100762.44;;;9.37;62.72
22031;BME280;11179;52.106;21.024;2023-04-20T03:43:47;100754.22;;;9.25;62.75
22031;BME280;11179;52.106;21.024;2023-04-20T03:46:12;100749.47;;;9.21;62.94
22031;BME280;11179;52.106;21.024;2023-04-20T03:48:38;100769.84;;;9.25;62.71
22031;BME280;11179;52.106;21.024;2023-04-20T03:51:03;100770.91;;;9.24;62.76
22031;BME280;11179;52.106;21.024;2023-04-20T03:53:28;100769.00;;;9.24;62.93
22031;BME280;11179;52.106;21.024;2023-04-20T03:55:54;100770.69;;;9.25;62.66
22031;BME280;11179;52.106;21.024;2023-04-20T03:58:20;100782.47;;;9.26;62.72
22031;BME280;11179;52.106;21.024;2023-04-20T04:00:45;100770.31;;;9.22;62.80
22031;BME280;11179;52.106;21.024;2023-04-20T04:03:11;100763.66;;;9.18;62.76
22031;BME280;11179;52.106;21.024;2023-04-20T04:05:36;100771.16;;;9.22;63.15
22031;BME280;11179;52.106;21.024;2023-04-20T04:08:02;100767.94;;;9.14;63.01
22031;BME280;11179;52.106;21.024;2023-04-20T04:10:27;100781.19;;;9.17;63.03
22031;BME280;11179;52.106;21.024;2023-04-20T04:12:52;100773.78;;;9.17;63.08
22031;BME280;11179;52.106;21.024;2023-04-20T04:15:18;100771.88;;;9.18;62.84
22031;BME280;11179;52.106;21.024;2023-04-20T04:17:43;100774.72;;;9.23;62.73
22031;BME280;11179;52.106;21.024;2023-04-20T04:20:10;100770.31;;;9.22;62.77
22031;BME280;11179;52.106;21.024;2023-04-20T04:22:36;100789.16;;;9.30;62.77
22031;BME280;11179;52.106;21.024;2023-04-20T04:25:01;100783.53;;;9.25;62.67
22031;BME280;11179;52.106;21.024;2023-04-20T04:27:27;100772.59;;;9.25;62.95
22031;BME280;11179;52.106;21.024;2023-04-20T04:29:54;100779.13;;;9.24;62.67
22031;BME280;11179;52.106;21.024;2023-04-20T04:32:20;100792.34;;;9.38;62.72
22031;BME280;11179;52.106;21.024;2023-04-20T04:34:46;100780.41;;;9.33;62.80
22031;BME280;11179;52.106;21.024;2023-04-20T04:37:12;100791.50;;;9.50;62.54
22031;BME280;11179;52.106;21.024;2023-04-20T04:39:38;100784.56;;;9.47;62.38
22031;BME280;11179;52.106;21.024;2023-04-20T04:42:04;100804.09;;;9.62;62.41
22031;BME280;11179;52.106;21.024;2023-04-20T04:44:29;100797.66;;;9.68;62.19
22031;BME280;11179;52.106;21.024;2023-04-20T04:46:56;100787.84;;;9.72;62.04
22031;BME280;11179;52.106;21.024;2023-04-20T04:49:22;100793.09;;;9.86;61.75
22031;BME280;11179;52.106;21.024;2023-04-20T04:51:48;100792.97;;;9.92;61.63
22031;BME280;11179;52.106;21.024;2023-04-20T04:54:13;100801.63;;;10.01;61.48
22031;BME280;11179;52.106;21.024;2023-04-20T04:56:39;100790.53;;;10.07;61.35
22031;BME280;11179;52.106;21.024;2023-04-20T04:59:04;100796.91;;;10.25;61.22
22031;BME280;11179;52.106;21.024;2023-04-20T05:01:30;100805.91;;;10.37;60.99
22031;BME280;11179;52.106;21.024;2023-04-20T05:03:55;100798.34;;;10.44;60.99
22031;BME280;11179;52.106;21.024;2023-04-20T05:06:20;100786.63;;;10.48;60.93
22031;BME280;11179;52.106;21.024;2023-04-20T05:08:46;100798.88;;;10.58;60.43
22031;BME280;11179;52.106;21.024;2023-04-20T05:11:11;100806.72;;;10.82;60.20
22031;BME280;11179;52.106;21.024;2023-04-20T05:13:36;100797.88;;;10.80;60.21
22031;BME280;11179;52.106;21.024;2023-04-20T05:16:02;100801.31;;;10.88;59.83
22031;BME280;11179;52.106;21.024;2023-04-20T05:18:27;100816.97;;;10.87;60.06
22031;BME280;11179;52.106;21.024;2023-04-20T05:20:53;100809.97;;;10.96;59.82
22031;BME280;11179;52.106;21.024;2023-04-20T05:23:18;100808.97;;;11.02;59.55
22031;BME280;11179;52.106;21.024;2023-04-20T05:25:43;100812.06;;;11.23;59.56
22031;BME280;11179;52.106;21.024;2023-04-20T05:28:09;100817.63;;;11.28;59.34
22031;BME280;11179;52.106;21.024;2023-04-20T05:30:34;100819.56;;;11.27;59.13
22031;BME280;11179;52.106;21.024;2023-04-20T05:33:00;100819.09;;;11.52;58.68
22031;BME280;11179;52.106;21.024;2023-04-20T05:35:25;100813.97;;;12.04;58.71
22031;BME280;11179;52.106;21.024;2023-04-20T05:37:51;100830.34;;;12.16;57.84
22031;BME280;11179;52.106;21.024;2023-04-20T05:40:16;100828.50;;;12.21;57.26
22031;BME280;11179;52.106;21.024;2023-04-20T05:42:41;100829.38;;;12.27;57.30
22031;BME280;11179;52.106;21.024;2023-04-20T05:45:07;100819.03;;;12.12;56.90
22031;BME280;11179;52.106;21.024;2023-04-20T05:47:33;100827.94;;;12.19;57.07
22031;BME280;11179;52.106;21.024;2023-04-20T05:49:58;100825.81;;;12.05;56.71
22031;BME280;11179;52.106;21.024;2023-04-20T05:52:23;100826.97;;;11.87;57.15
22031;BME280;11179;52.106;21.024;2023-04-20T05:54:49;100839.47;;;11.95;57.22
22031;BME280;11179;52.106;21.024;2023-04-20T05:57:14;100838.09;;;12.19;57.08
22031;BME280;11179;52.106;21.024;2023-04-20T05:59:39;100843.78;;;12.34;56.52
22031;BME280;11179;52.106;21.024;2023-04-20T06:02:05;100834.63;;;12.50;56.28
22031;BME280;11179;52.106;21.024;2023-04-20T06:04:31;100842.16;;;12.87;56.12
22031;BME280;11179;52.106;21.024;2023-04-20T06:06:56;100849.09;;;13.31;55.50
22031;BME280;11179;52.106;21.024;2023-04-20T06:09:21;100845.56;;;13.36;54.99
22031;BME280;11179;52.106;21.024;2023-04-20T06:11:47;100846.03;;;13.60;54.68
22031;BME280;11179;52.106;21.024;2023-04-20T06:14:12;100850.84;;;13.80;54.31
22031;BME280;11179;52.106;21.024;2023-04-20T06:16:39;100855.22;;;13.71;54.13
22031;BME280;11179;52.106;21.024;2023-04-20T06:19:04;100861.63;;;13.86;53.98
22031;BME280;11179;52.106;21.024;2023-04-20T06:21:32;100858.06;;;13.91;53.58
22031;BME280;11179;52.106;21.024;2023-04-20T06:23:58;100850.16;;;14.15;53.05
22031;BME280;11179;52.106;21.024;2023-04-20T06:26:23;100847.53;;;14.60;52.63
22031;BME280;11179;52.106;21.024;2023-04-20T06:28:49;100851.75;;;14.83;52.27
22031;BME280;11179;52.106;21.024;2023-04-20T06:31:17;100847.31;;;14.72;51.38
22031;BME280;11179;52.106;21.024;2023-04-20T06:33:42;100843.94;;;14.60;50.79
22031;BME280;11179;52.106;21.024;2023-04-20T06:36:08;100848.19;;;15.03;50.34
22031;BME280;11179;52.106;21.024;2023-04-20T06:38:33;100850.63;;;15.55;49.93
22031;BME280;11179;52.106;21.024;2023-04-20T06:40:59;100841.13;;;15.97;48.88
22031;BME280;11179;52.106;21.024;2023-04-20T06:43:27;100842.91;;;16.27;48.14
22031;BME280;11179;52.106;21.024;2023-04-20T06:45:52;100845.16;;;16.74;47.14
22031;BME280;11179;52.106;21.024;2023-04-20T06:48:17;100856.34;;;17.03;46.34
22031;BME280;11179;52.106;21.024;2023-04-20T06:50:42;100838.63;;;17.28;46.17
22031;BME280;11179;52.106;21.024;2023-04-20T06:53:08;100845.25;;;17.61;45.25
22031;BME280;11179;52.106;21.024;2023-04-20T06:55:33;100847.84;;;17.52;43.91
22031;BME280;11179;52.106;21.024;2023-04-20T06:57:58;100851.75;;;17.46;43.66
22031;BME280;11179;52.106;21.024;2023-04-20T07:00:24;100856.25;;;17.42;43.15
22031;BME280;11179;52.106;21.024;2023-04-20T07:02:52;100854.25;;;17.47;42.91
22031;BME280;11179;52.106;21.024;2023-04-20T07:05:18;100851.25;;;17.73;42.90
22031;BME280;11179;52.106;21.024;2023-04-20T07:07:44;100854.81;;;17.78;42.30
22031;BME280;11179;52.106;21.024;2023-04-20T07:10:11;100864.47;;;17.57;42.11
22031;BME280;11179;52.106;21.024;2023-04-20T07:12:37;100856.25;;;17.42;42.37
22031;BME280;11179;52.106;21.024;2023-04-20T07:15:04;100857.91;;;17.43;42.39
22031;BME280;11179;52.106;21.024;2023-04-20T07:17:30;100861.66;;;17.28;41.71
22031;BME280;11179;52.106;21.024;2023-04-20T07:19:56;100856.34;;;17.03;42.18
22031;BME280;11179;52.106;21.024;2023-04-20T07:22:23;100862.56;;;16.84;42.13
22031;BME280;11179;52.106;21.024;2023-04-20T07:24:48;100871.72;;;16.80;42.12
22031;BME280;11179;52.106;21.024;2023-04-20T07:27:13;100864.94;;;16.52;42.40
22031;BME280;11179;52.106;21.024;2023-04-20T07:29:38;100870.41;;;16.72;42.38
22031;BME280;11179;52.106;21.024;2023-04-20T07:32:04;100868.09;;;16.90;42.25
22031;BME280;11179;52.106;21.024;2023-04-20T07:34:29;100867.09;;;17.43;42.21
22031;BME280;11179;52.106;21.024;2023-04-20T07:36:55;100866.25;;;17.72;41.63
22031;BME280;11179;52.106;21.024;2023-04-20T07:39:20;100865.56;;;18.09;41.54
22031;BME280;11179;52.106;21.024;2023-04-20T07:41:46;100867.19;;;18.34;40.25
22031;BME280;11179;52.106;21.024;2023-04-20T07:44:14;100858.06;;;18.52;40.14
22031;BME280;11179;52.106;21.024;2023-04-20T07:46:39;100868.28;;;18.94;39.93
22031;BME280;11179;52.106;21.024;2023-04-20T07:49:04;100847.59;;;19.51;39.86
22031;BME280;11179;52.106;21.024;2023-04-20T07:51:30;100859.13;;;19.58;38.36
22031;BME280;11179;52.106;21.024;2023-04-20T07:53:57;100855.63;;;19.53;38.34
22031;BME280;11179;52.106;21.024;2023-04-20T07:56:22;100850.91;;;19.53;38.15
22031;BME280;11179;52.106;21.024;2023-04-20T07:58:47;100859.59;;;19.33;37.59
22031;BME280;11179;52.106;21.024;2023-04-20T08:01:13;100858.69;;;18.86;37.86
22031;BME280;11179;52.106;21.024;2023-04-20T08:03:38;100860.50;;;18.77;38.32
22031;BME280;11179;52.106;21.024;2023-04-20T08:06:04;100867.25;;;18.71;38.56
22031;BME280;11179;52.106;21.024;2023-04-20T08:08:29;100866.06;;;18.77;38.34
22031;BME280;11179;52.106;21.024;2023-04-20T08:10:57;100862.78;;;19.26;37.95
22031;BME280;11179;52.106;21.024;2023-04-20T08:13:23;100863.44;;;19.97;37.39
22031;BME280;11179;52.106;21.024;2023-04-20T08:15:48;100844.16;;;20.64;36.67
22031;BME280;11179;52.106;21.024;2023-04-20T08:18:14;100858.91;;;20.78;35.27
22031;BME280;11179;52.106;21.024;2023-04-20T08:20:39;100854.00;;;21.20;35.32
22031;BME280;11179;52.106;21.024;2023-04-20T08:23:04;100846.38;;;21.56;34.64
22031;BME280;11179;52.106;21.024;2023-04-20T08:25:30;100864.13;;;21.60;33.86
22031;BME280;11179;52.106;21.024;2023-04-20T08:27:56;100850.44;;;21.28;33.49
22031;BME280;11179;52.106;21.024;2023-04-20T08:30:22;100850.00;;;21.12;33.63
22031;BME280;11179;52.106;21.024;2023-04-20T08:32:47;100860.25;;;21.17;32.91
22031;BME280;11179;52.106;21.024;2023-04-20T08:35:12;100844.75;;;21.10;32.83
22031;BME280;11179;52.106;21.024;2023-04-20T08:37:38;100854.19;;;21.23;32.94
22031;BME280;11179;52.106;21.024;2023-04-20T08:40:03;100855.00;;;21.24;32.88
22031;BME280;11179;52.106;21.024;2023-04-20T08:42:29;100849.97;;;21.03;32.79
22031;BME280;11179;52.106;21.024;2023-04-20T08:44:56;100851.88;;;20.81;31.38
22031;BME280;11179;52.106;21.024;2023-04-20T08:47:22;100841.28;;;20.91;31.99
22031;BME280;11179;52.106;21.024;2023-04-20T08:49:52;100845.41;;;21.38;31.39
22031;BME280;11179;52.106;21.024;2023-04-20T08:52:18;100846.69;;;21.32;31.20
22031;BME280;11179;52.106;21.024;2023-04-20T08:54:44;100849.44;;;21.01;31.19
22031;BME280;11179;52.106;21.024;2023-04-20T08:57:09;100831.78;;;20.92;31.47
22031;BME280;11179;52.106;21.024;2023-04-20T08:59:35;100856.78;;;20.97;31.55
22031;BME280;11179;52.106;21.024;2023-04-20T09:02:09;100853.16;;;20.61;30.48
22031;BME280;11179;52.106;21.024;2023-04-20T09:04:35;100847.75;;;20.01;31.15
22031;BME280;11179;52.106;21.024;2023-04-20T09:07:01;100848.25;;;19.89;31.82
22031;BME280;11179;52.106;21.024;2023-04-20T09:09:27;100847.34;;;20.08;31.23
22031;BME280;11179;52.106;21.024;2023-04-20T09:12:06;100853.44;;;19.96;30.08
22031;BME280;11179;52.106;21.024;2023-04-20T09:14:43;100850.13;;;20.35;30.43
22031;BME280;11179;52.106;21.024;2023-04-20T09:17:08;100847.56;;;20.74;30.26
22031;BME280;11179;52.106;21.024;2023-04-20T09:19:38;100852.22;;;21.01;29.42
22031;BME280;11179;52.106;21.024;2023-04-20T09:22:04;100858.50;;;20.71;29.33
22031;BME280;11179;52.106;21.024;2023-04-20T09:24:35;100846.22;;;20.09;29.49
22031;BME280;11179;52.106;21.024;2023-04-20T09:27:02;100842.69;;;20.03;30.13
22031;BME280;11179;52.106;21.024;2023-04-20T09:29:27;100846.19;;;19.95;29.80
22031;BME280;11179;52.106;21.024;2023-04-20T09:31:54;100853.44;;;20.23;30.25
22031;BME280;11179;52.106;21.024;2023-04-20T09:34:20;100844.75;;;19.84;29.99
22031;BME280;11179;52.106;21.024;2023-04-20T09:36:47;100852.38;;;19.32;30.59
22031;BME280;11179;52.106;21.024;2023-04-20T09:39:22;100855.53;;;19.58;30.49
22031;BME280;11179;52.106;21.024;2023-04-20T09:41:50;100851.91;;;19.57;30.34
22031;BME280;11179;52.106;21.024;2023-04-20T09:44:16;100841.63;;;19.85;29.55
22031;BME280;11179;52.106;21.024;2023-04-20T09:46:43;100847.53;;;20.11;29.56
22031;BME280;11179;52.106;21.024;2023-04-20T09:49:10;100860.56;;;20.02;29.12
22031;BME280;11179;52.106;21.024;2023-04-20T09:51:38;100851.78;;;19.95;29.97
22031;BME280;11179;52.106;21.024;2023-04-20T09:54:06;100852.47;;;19.73;29.62
22031;BME280;11179;52.106;21.024;2023-04-20T09:56:33;100872.13;;;19.49;30.01
22031;BME280;11179;52.106;21.024;2023-04-20T09:58:59;100845.03;;;19.55;29.06
22031;BME280;11179;52.106;21.024;2023-04-20T10:01:25;100852.06;;;19.80;28.70
22031;BME280;11179;52.106;21.024;2023-04-20T10:03:52;100852.28;;;19.97;28.47
22031;BME280;11179;52.106;21.024;2023-04-20T10:08:51;100842.06;;;20.33;27.81
22031;BME280;11179;52.106;21.024;2023-04-20T10:14:00;100830.13;;;20.91;26.99
22031;BME280;11179;52.106;21.024;2023-04-20T10:16:26;100834.09;;;20.27;27.21
22031;BME280;11179;52.106;21.024;2023-04-20T10:19:02;100843.44;;;20.09;27.87
22031;BME280;11179;52.106;21.024;2023-04-20T10:21:29;100847.72;;;19.87;27.38
22031;BME280;11179;52.106;21.024;2023-04-20T10:23:57;100844.94;;;19.74;27.71
22031;BME280;11179;52.106;21.024;2023-04-20T10:26:35;100834.41;;;19.84;28.27
22031;BME280;11179;52.106;21.024;2023-04-20T10:29:01;100838.56;;;20.00;27.94
22031;BME280;11179;52.106;21.024;2023-04-20T10:31:34;100829.88;;;19.88;28.33
22031;BME280;11179;52.106;21.024;2023-04-20T10:34:00;100835.19;;;19.57;28.13
22031;BME280;11179;52.106;21.024;2023-04-20T10:36:33;100841.66;;;19.07;28.49
22031;BME280;11179;52.106;21.024;2023-04-20T10:39:11;100838.97;;;18.83;29.22
22031;BME280;11179;52.106;21.024;2023-04-20T10:41:37;100822.78;;;19.04;29.18
22031;BME280;11179;52.106;21.024;2023-04-20T10:44:06;100830.34;;;19.49;28.76
22031;BME280;11179;52.106;21.024;2023-04-20T10:46:32;100831.22;;;19.91;29.01
22031;BME280;11179;52.106;21.024;2023-04-20T10:48:59;100836.06;;;20.26;27.81
22031;BME280;11179;52.106;21.024;2023-04-20T10:51:28;100821.59;;;20.24;27.17
22031;BME280;11179;52.106;21.024;2023-04-20T10:54:11;100819.56;;;20.02;25.96
22031;BME280;11179;52.106;21.024;2023-04-20T10:59:07;100813.09;;;19.33;27.05
22031;BME280;11179;52.106;21.024;2023-04-20T11:01:32;100820.72;;;19.28;27.07
22031;BME280;11179;52.106;21.024;2023-04-20T11:03:58;100819.00;;;19.13;27.48
22031;BME280;11179;52.106;21.024;2023-04-20T11:06:23;100825.19;;;18.91;27.73
22031;BME280;11179;52.106;21.024;2023-04-20T11:08:48;100828.75;;;18.78;28.25
22031;BME280;11179;52.106;21.024;2023-04-20T11:11:22;100828.53;;;18.56;27.72
22031;BME280;11179;52.106;21.024;2023-04-20T11:13:52;100823.94;;;18.65;27.72
22031;BME280;11179;52.106;21.024;2023-04-20T11:16:28;100810.16;;;18.92;27.61
22031;BME280;11179;52.106;21.024;2023-04-20T11:18:54;100810.75;;;19.41;27.98
22031;BME280;11179;52.106;21.024;2023-04-20T11:21:21;100810.28;;;19.80;27.23
22031;BME280;11179;52.106;21.024;2023-04-20T11:23:47;100799.34;;;19.97;26.46
22031;BME280;11179;52.106;21.024;2023-04-20T11:26:13;100798.28;;;19.93;26.46
22031;BME280;11179;52.106;21.024;2023-04-20T11:28:49;100798.50;;;19.96;26.58
22031;BME280;11179;52.106;21.024;2023-04-20T11:31:17;100803.56;;;19.94;25.59
22031;BME280;11179;52.106;21.024;2023-04-20T11:33:43;100812.13;;;19.57;25.61
22031;BME280;11179;52.106;21.024;2023-04-20T11:36:18;100815.78;;;19.39;26.28
22031;BME280;11179;52.106;21.024;2023-04-20T11:38:43;100812.38;;;19.28;26.52
22031;BME280;11179;52.106;21.024;2023-04-20T11:41:08;100810.44;;;19.10;26.35
22031;BME280;11179;52.106;21.024;2023-04-20T11:43:34;100817.94;;;19.09;26.50
22031;BME280;11179;52.106;21.024;2023-04-20T11:46:00;100806.34;;;18.88;26.43
22031;BME280;11179;52.106;21.024;2023-04-20T11:48:29;100803.66;;;19.16;26.70
22031;BME280;11179;52.106;21.024;2023-04-20T11:50:55;100788.88;;;19.48;25.80
22031;BME280;11179;52.106;21.024;2023-04-20T11:53:21;100787.16;;;19.65;25.60
22031;BME280;11179;52.106;21.024;2023-04-20T11:55:46;100796.56;;;19.83;25.49
22031;BME280;11179;52.106;21.024;2023-04-20T11:58:11;100793.41;;;19.57;25.57
22031;BME280;11179;52.106;21.024;2023-04-20T12:00:36;100807.75;;;19.37;25.82
22031;BME280;11179;52.106;21.024;2023-04-20T12:03:02;100796.19;;;19.30;26.25
22031;BME280;11179;52.106;21.024;2023-04-20T12:05:27;100795.31;;;19.16;26.38
22031;BME280;11179;52.106;21.024;2023-04-20T12:07:53;100788.94;;;18.96;26.59
22031;BME280;11179;52.106;21.024;2023-04-20T12:10:18;100804.88;;;18.77;26.29
22031;BME280;11179;52.106;21.024;2023-04-20T12:12:43;100793.72;;;18.77;27.05
22031;BME280;11179;52.106;21.024;2023-04-20T12:15:09;100795.28;;;18.83;26.94
22031;BME280;11179;52.106;21.024;2023-04-20T12:17:34;100801.22;;;18.95;26.46
22031;BME280;11179;52.106;21.024;2023-04-20T12:20:00;100802.78;;;19.02;26.56
22031;BME280;11179;52.106;21.024;2023-04-20T12:22:25;100774.78;;;19.12;26.16
22031;BME280;11179;52.106;21.024;2023-04-20T12:24:50;100779.81;;;19.42;25.97
22031;BME280;11179;52.106;21.024;2023-04-20T12:27:16;100763.94;;;19.43;25.11
22031;BME280;11179;52.106;21.024;2023-04-20T12:29:41;100778.28;;;19.63;25.19
22031;BME280;11179;52.106;21.024;2023-04-20T12:32:06;100778.78;;;19.79;25.44
22031;BME280;11179;52.106;21.024;2023-04-20T12:34:32;100774.56;;;19.95;24.56
22031;BME280;11179;52.106;21.024;2023-04-20T12:36:57;100779.50;;;19.85;24.72
22031;BME280;11179;52.106;21.024;2023-04-20T12:39:22;100768.78;;;19.64;24.33
22031;BME280;11179;52.106;21.024;2023-04-20T12:41:48;100782.91;;;19.41;24.48
22031;BME280;11179;52.106;21.024;2023-04-20T12:44:13;100777.38;;;19.22;24.91